Time;durP1;ratioP1;P1;durP2;ratioP2;P2;SDS_P1;SDS_P2;PMS_P1;PMS_P2;Temp;Humidity;BMP_temperature;BMP_pressure;BME280_temperature;BME280_humidity;BME280_pressure;Samples;Min_cycle;Max_cycle;Signal;HPM_P1;HPM_P2
2023/09/22 00:00:15;;;;;;;0.10;0.10;;;;;;;18.79;100.00;98144.53;337369;28;4513;-66
2023/09/22 00:00:29;;;;;;;0.20;0.10;;;;;;;18.79;100.00;98149.81;335243;28;17774;-66
2023/09/22 00:00:41;;;;;;;0.20;0.10;;;;;;;18.79;100.00;98149.81;334746;28;17741;-66
2023/09/22 00:00:55;;;;;;;0.13;0.13;;;;;;;18.77;100.00;98148.16;335743;28;12463;-66
2023/09/22 00:01:07;;;;;;;0.10;0.10;;;;;;;18.79;100.00;98155.06;337168;28;4726;-66
2023/09/22 00:01:20;;;;;;;0.10;0.10;;;;;;;18.76;100.00;98154.38;334779;28;5428;-66
2023/09/22 00:01:32;;;;;;;0.10;0.10;;;;;;;18.75;100.00;98160.63;337455;28;6839;-66
2023/09/22 00:01:44;;;;;;;0.20;0.20;;;;;;;18.72;100.00;98149.53;334059;28;18601;-66
2023/09/22 00:01:56;;;;;;;0.35;0.20;;;;;;;18.72;100.00;98155.63;337146;28;4717;-66
2023/09/22 00:02:08;;;;;;;0.25;0.20;;;;;;;18.72;100.00;98153.00;335128;28;5783;-66
2023/09/22 00:02:20;;;;;;;0.20;0.20;;;;;;;18.73;100.00;98149.41;337836;28;4577;-66
2023/09/22 00:02:33;;;;;;;0.10;0.10;;;;;;;18.73;100.00;98145.91;337004;28;5387;-66
2023/09/22 00:02:46;;;;;;;0.30;0.10;;;;;;;18.71;100.00;98148.72;333496;28;17924;-66
2023/09/22 00:02:59;;;;;;;0.40;0.20;;;;;;;18.70;100.00;98152.28;337492;28;4748;-66
2023/09/22 00:03:11;;;;;;;0.20;0.20;;;;;;;18.69;100.00;98155.91;334917;28;18099;-66
2023/09/22 00:03:23;;;;;;;0.17;0.17;;;;;;;18.71;100.00;98150.50;337869;28;4878;-66
2023/09/22 00:03:35;;;;;;;0.10;0.10;;;;;;;18.71;100.00;98148.72;336294;28;5847;-66
2023/09/22 00:03:48;;;;;;;0.10;0.10;;;;;;;18.73;100.00;98154.66;338183;28;4646;-66
2023/09/22 00:04:00;;;;;;;0.25;0.10;;;;;;;18.75;100.00;98152.72;335870;28;11850;-66
2023/09/22 00:04:12;;;;;;;0.20;0.10;;;;;;;18.76;100.00;98150.91;338691;28;6127;-66
2023/09/22 00:04:24;;;;;;;0.15;0.10;;;;;;;18.76;100.00;98149.09;335712;28;16903;-66
2023/09/22 00:04:37;;;;;;;0.10;0.10;;;;;;;18.76;100.00;98151.75;337640;28;4595;-66
2023/09/22 00:04:49;;;;;;;0.10;0.10;;;;;;;18.76;100.00;98157.00;334781;28;11781;-66
2023/09/22 00:05:01;;;;;;;0.13;0.13;;;;;;;18.78;100.00;98154.25;337998;28;6085;-66
2023/09/22 00:05:14;;;;;;;0.10;0.10;;;;;;;18.78;100.00;98156.88;338766;28;5026;-66
2023/09/22 00:05:26;;;;;;;0.10;0.10;;;;;;;18.79;100.00;98155.06;336143;28;18008;-66
2023/09/22 00:05:39;;;;;;;0.03;0.03;;;;;;;18.79;100.00;98157.69;338136;28;4630;-66
2023/09/22 00:05:52;;;;;;;0.10;0.10;;;;;;;18.75;100.00;98160.63;334860;28;5267;-66
2023/09/22 00:06:05;;;;;;;0.30;0.20;;;;;;;18.75;100.00;98159.78;330694;28;4693;-66
2023/09/22 00:06:18;;;;;;;0.20;0.13;;;;;;;18.75;100.00;98160.63;337577;28;5152;-66
2023/09/22 00:06:30;;;;;;;0.20;0.20;;;;;;;18.74;100.00;98161.56;337335;28;5872;-66
2023/09/22 00:06:42;;;;;;;0.20;0.20;;;;;;;18.75;100.00;98160.63;333745;28;17756;-66
2023/09/22 00:06:54;;;;;;;0.10;0.10;;;;;;;18.77;100.00;98163.09;337770;28;5079;-66
2023/09/22 00:07:06;;;;;;;0.10;0.10;;;;;;;18.77;100.00;98163.94;331283;28;16750;-66
2023/09/22 00:07:19;;;;;;;0.13;0.13;;;;;;;18.77;100.00;98161.31;337382;28;6478;-66
2023/09/22 00:07:31;;;;;;;0.13;0.13;;;;;;;18.77;100.00;98163.94;336425;28;11892;-66
2023/09/22 00:07:43;;;;;;;0.32;0.15;;;;;;;18.79;100.00;98166.44;335182;28;18309;-66
2023/09/22 00:07:55;;;;;;;0.40;0.20;;;;;;;18.81;100.00;98163.69;337405;28;5675;-66
2023/09/22 00:08:08;;;;;;;0.30;0.10;;;;;;;18.82;100.00;98170.63;334168;28;18679;-66
2023/09/22 00:08:21;;;;;;;0.10;0.10;;;;;;;18.82;100.00;98170.63;336322;28;5545;-66
2023/09/22 00:08:32;;;;;;;0.20;0.10;;;;;;;18.82;100.00;98173.25;333457;28;18061;-66
2023/09/22 00:08:45;;;;;;;0.20;0.10;;;;;;;18.81;100.00;98168.94;336526;28;4672;-66
2023/09/22 00:08:57;;;;;;;0.20;0.10;;;;;;;18.81;100.00;98168.94;330068;28;17880;-66
2023/09/22 00:09:09;;;;;;;0.10;0.10;;;;;;;18.80;100.00;98170.75;337638;28;4668;-66
2023/09/22 00:09:21;;;;;;;0.10;0.10;;;;;;;18.80;100.00;98167.31;335133;28;16337;-66
2023/09/22 00:09:33;;;;;;;0.10;0.10;;;;;;;18.79;100.00;98170.84;338046;28;4576;-67
2023/09/22 00:09:45;;;;;;;0.20;0.10;;;;;;;18.80;100.00;98168.13;337177;28;4665;-66
2023/09/22 00:09:58;;;;;;;0.50;0.20;;;;;;;18.76;100.00;98172.81;336197;28;18057;-66
2023/09/22 00:10:10;;;;;;;0.20;0.13;;;;;;;18.73;100.00;98173.09;338532;28;5548;-66
2023/09/22 00:10:23;;;;;;;0.70;0.10;;;;;;;18.73;100.00;98173.09;336139;28;12860;-66
2023/09/22 00:10:35;;;;;;;0.40;0.10;;;;;;;18.75;100.00;98175.56;333359;28;4591;-66
2023/09/22 00:10:47;;;;;;;0.10;0.10;;;;;;;18.75;100.00;98171.16;336039;28;5912;-66
2023/09/22 00:10:59;;;;;;;0.10;0.10;;;;;;;18.74;100.00;98179.19;338394;28;4659;-67
2023/09/22 00:11:11;;;;;;;0.10;0.10;;;;;;;18.73;100.00;98173.09;338612;28;5680;-67
2023/09/22 00:11:23;;;;;;;0.10;0.10;;;;;;;18.74;100.00;98180.00;335884;28;17801;-66
2023/09/22 00:11:36;;;;;;;0.10;0.10;;;;;;;18.72;100.00;98176.69;337975;28;4570;-66
2023/09/22 00:11:48;;;;;;;0.15;0.10;;;;;;;18.72;100.00;98178.50;336873;28;18256;-66
2023/09/22 00:12:01;;;;;;;0.20;0.10;;;;;;;18.70;100.00;98173.34;335477;28;18647;-66
2023/09/22 00:12:13;;;;;;;0.47;0.17;;;;;;;18.68;100.00;98175.28;332177;28;4595;-67
2023/09/22 00:12:25;;;;;;;0.40;0.10;;;;;;;18.66;100.00;98176.41;337630;28;5472;-66
2023/09/22 00:12:37;;;;;;;0.40;0.10;;;;;;;18.64;100.00;98173.91;337086;28;4651;-67
2023/09/22 00:12:49;;;;;;;0.10;0.08;;;;;;;18.58;100.00;98173.63;336224;28;17710;-66
2023/09/22 00:13:01;;;;;;;1.10;0.10;;;;;;;18.55;100.00;98179.97;337202;28;4661;-66
2023/09/22 00:13:14;;;;;;;1.08;0.10;;;;;;;18.54;100.00;98173.88;336076;28;17959;-66
2023/09/22 00:13:26;;;;;;;1.10;0.20;;;;;;;18.55;100.00;98177.34;338804;28;4670;-67
2023/09/22 00:13:38;;;;;;;0.13;0.13;;;;;;;18.51;100.00;98174.19;334864;28;9445;-66
2023/09/22 00:13:50;;;;;;;0.13;0.13;;;;;;;18.50;100.00;98171.69;339074;28;4663;-67
2023/09/22 00:14:03;;;;;;;0.10;0.10;;;;;;;18.50;100.00;98174.31;337322;28;5128;-66
2023/09/22 00:14:15;;;;;;;0.10;0.10;;;;;;;18.51;100.00;98179.44;334656;28;18272;-66
2023/09/22 00:14:27;;;;;;;0.10;0.10;;;;;;;18.50;100.00;98177.75;337942;28;4952;-66
2023/09/22 00:14:39;;;;;;;0.13;0.13;;;;;;;18.50;100.00;98175.13;335094;28;18219;-66
2023/09/22 00:14:51;;;;;;;0.20;0.20;;;;;;;18.53;100.00;98179.28;337402;28;4694;-66
2023/09/22 00:15:03;;;;;;;0.20;0.20;;;;;;;18.54;100.00;98180.97;333022;28;4522;-66
2023/09/22 00:15:15;;;;;;;0.10;0.10;;;;;;;18.55;100.00;98175.56;335280;28;17895;-66
2023/09/22 00:15:28;;;;;;;0.25;0.15;;;;;;;18.54;100.00;98173.88;337689;28;5466;-67
2023/09/22 00:15:40;;;;;;;0.60;0.20;;;;;;;18.53;100.00;98176.66;334434;28;17980;-66
2023/09/22 00:15:52;;;;;;;0.60;0.17;;;;;;;18.48;100.00;98174.44;338003;28;5893;-67
2023/09/22 00:16:04;;;;;;;0.00;0.00;;;;;;;18.47;100.00;98171.94;334580;28;11939;-67
2023/09/22 00:16:17;;;;;;;0.03;0.00;;;;;;;18.45;100.00;98180.00;338757;28;5597;-67
2023/09/22 00:16:30;;;;;;;0.10;0.10;;;;;;;18.41;100.00;98172.47;336315;28;4928;-67
2023/09/22 00:16:42;;;;;;;0.10;0.10;;;;;;;18.42;100.00;98174.97;338243;28;4582;-66
2023/09/22 00:16:55;;;;;;;0.10;0.10;;;;;;;18.44;100.00;98172.22;335955;28;18067;-67
2023/09/22 00:17:07;;;;;;;0.10;0.10;;;;;;;18.45;100.00;98179.13;338659;28;4997;-66
2023/09/22 00:17:19;;;;;;;0.10;0.10;;;;;;;18.46;100.00;98175.56;338829;28;4915;-66
2023/09/22 00:17:35;;;;;;;0.20;0.10;;;;;;;18.49;100.00;98170.00;335927;28;19431;-67
2023/09/22 00:17:47;;;;;;;0.38;0.38;;;;;;;18.51;100.00;98168.06;335629;28;17919;-66
2023/09/22 00:17:59;;;;;;;0.30;0.30;;;;;;;18.53;100.00;98174.03;333011;28;5689;-66
2023/09/22 00:18:12;;;;;;;0.20;0.20;;;;;;;18.52;100.00;98175.00;334524;28;18204;-67
2023/09/22 00:18:24;;;;;;;0.10;0.10;;;;;;;18.50;100.00;98175.13;336468;28;4504;-67
2023/09/22 00:18:35;;;;;;;0.10;0.10;;;;;;;18.51;100.00;98162.81;333854;28;18305;-67
2023/09/22 00:18:48;;;;;;;0.10;0.10;;;;;;;18.50;100.00;98167.25;336349;28;5500;-66
2023/09/22 00:19:05;;;;;;;0.10;0.10;;;;;;;18.52;100.00;98165.31;335907;28;12469;-66
2023/09/22 00:19:17;;;;;;;0.15;0.13;;;;;;;18.53;100.00;98171.38;333964;28;16737;-67
2023/09/22 00:19:29;;;;;;;0.30;0.20;;;;;;;18.54;100.00;98167.81;337254;28;5783;-66
2023/09/22 00:19:41;;;;;;;1.80;0.30;;;;;;;18.55;100.00;98170.31;330582;28;18162;-67
2023/09/22 00:19:53;;;;;;;1.63;0.10;;;;;;;18.55;100.00;98174.72;337309;28;5136;-67
2023/09/22 00:20:12;;;;;;;0.57;0.20;;;;;;;18.56;100.00;98171.94;334812;28;18165;-67
2023/09/22 00:20:24;;;;;;;0.50;0.35;;;;;;;18.56;100.00;98168.50;333678;28;17542;-67
2023/09/22 00:20:37;;;;;;;0.73;0.32;;;;;;;18.56;100.00;98169.31;333990;28;18168;-67
2023/09/22 00:20:49;;;;;;;0.35;0.10;;;;;;;18.57;100.00;98167.50;337173;28;5540;-67
2023/09/22 00:21:02;;;;;;;0.40;0.20;;;;;;;18.56;100.00;98165.88;331691;28;4788;-67
2023/09/22 00:21:16;;;;;;;0.30;0.20;;;;;;;18.58;100.00;98166.56;334844;28;17917;-66
2023/09/22 00:21:28;;;;;;;0.65;0.15;;;;;;;18.58;100.00;98169.19;333207;28;18444;-67
2023/09/22 00:21:41;;;;;;;0.55;0.10;;;;;;;18.59;100.00;98170.84;337393;28;4645;-67
2023/09/22 00:21:55;;;;;;;0.17;0.10;;;;;;;18.59;100.00;98173.47;333789;28;17783;-67
2023/09/22 00:22:07;;;;;;;0.13;0.10;;;;;;;18.58;100.00;98169.19;334137;28;18194;-67
2023/09/22 00:22:19;;;;;;;0.17;0.15;;;;;;;18.60;100.00;98175.16;337224;28;4654;-66
2023/09/22 00:22:32;;;;;;;0.15;0.13;;;;;;;18.57;100.00;98172.78;332764;28;4658;-67
2023/09/22 00:22:44;;;;;;;0.20;0.20;;;;;;;18.56;100.00;98171.13;333201;28;17880;-66
2023/09/22 00:22:56;;;;;;;0.22;0.22;;;;;;;18.54;100.00;98167.81;337845;28;4663;-67
2023/09/22 00:23:08;;;;;;;0.13;0.13;;;;;;;18.54;100.00;98167.81;334147;28;17804;-66
2023/09/22 00:23:21;;;;;;;0.10;0.10;;;;;;;18.51;100.00;98168.06;337258;28;4769;-65
2023/09/22 00:23:33;;;;;;;0.10;0.10;;;;;;;18.46;100.00;98167.66;334559;28;4738;-66
2023/09/22 00:23:45;;;;;;;0.10;0.10;;;;;;;18.43;100.00;98170.53;337059;28;5142;-66
2023/09/22 00:23:57;;;;;;;0.10;0.10;;;;;;;18.40;100.00;98165.56;337618;28;6159;-65
2023/09/22 00:24:09;;;;;;;0.17;0.17;;;;;;;18.36;100.00;98171.09;330308;28;19229;-66
2023/09/22 00:24:22;;;;;;;0.30;0.30;;;;;;;18.31;100.00;98169.81;337916;28;4657;-66
2023/09/22 00:24:34;;;;;;;0.30;0.30;;;;;;;18.30;100.00;98171.63;331870;28;12134;-66
2023/09/22 00:24:46;;;;;;;0.30;0.20;;;;;;;18.30;100.00;98166.38;336227;28;6067;-66
2023/09/22 00:24:58;;;;;;;0.22;0.20;;;;;;;18.30;100.00;98161.09;335805;28;16760;-66
2023/09/22 00:25:12;;;;;;;0.20;0.10;;;;;;;18.30;100.00;98168.19;337462;28;6144;-66
2023/09/22 00:25:24;;;;;;;0.20;0.10;;;;;;;18.30;100.00;98171.63;334961;28;18223;-66
2023/09/22 00:25:36;;;;;;;0.40;0.10;;;;;;;18.33;100.00;98171.38;337435;28;4625;-66
2023/09/22 00:25:48;;;;;;;0.50;0.13;;;;;;;18.35;100.00;98169.44;332273;28;4664;-66
2023/09/22 00:26:02;;;;;;;0.15;0.10;;;;;;;18.37;100.00;98164.03;335580;28;18388;-66
2023/09/22 00:26:14;;;;;;;0.40;0.15;;;;;;;18.34;100.00;98173.03;334611;28;5222;-66
2023/09/22 00:26:26;;;;;;;0.30;0.10;;;;;;;18.35;100.00;98174.69;337465;28;4770;-66
2023/09/22 00:26:38;;;;;;;0.00;0.00;;;;;;;18.38;100.00;98173.59;337262;28;5425;-66
2023/09/22 00:26:50;;;;;;;0.00;0.00;;;;;;;18.38;100.00;98168.34;334322;28;18974;-66
2023/09/22 00:27:02;;;;;;;0.08;0.08;;;;;;;18.40;100.00;98171.66;337524;28;4650;-66
2023/09/22 00:27:15;;;;;;;0.05;0.05;;;;;;;18.42;100.00;98174.97;335375;28;12197;-66
2023/09/22 00:27:28;;;;;;;0.10;0.10;;;;;;;18.44;100.00;98169.59;337899;28;4657;-66
2023/09/22 00:27:40;;;;;;;0.10;0.10;;;;;;;18.44;100.00;98172.22;334973;28;17175;-66
2023/09/22 00:27:52;;;;;;;0.10;0.10;;;;;;;18.45;100.00;98173.88;337686;28;4805;-66
2023/09/22 00:28:04;;;;;;;0.10;0.10;;;;;;;18.46;100.00;98172.91;334875;28;12264;-66
2023/09/22 00:28:17;;;;;;;0.10;0.10;;;;;;;18.46;100.00;98171.13;338086;28;5119;-66
2023/09/22 00:28:29;;;;;;;0.10;0.10;;;;;;;18.46;100.00;98173.75;337798;28;4544;-66
2023/09/22 00:28:41;;;;;;;0.10;0.10;;;;;;;18.47;100.00;98171.94;329837;28;17866;-66
2023/09/22 00:28:53;;;;;;;0.08;0.08;;;;;;;18.48;100.00;98173.63;338080;28;5175;-66
2023/09/22 00:29:05;;;;;;;0.10;0.10;;;;;;;18.49;100.00;98175.25;337133;28;4816;-66
2023/09/22 00:29:17;;;;;;;0.20;0.20;;;;;;;18.46;100.00;98170.28;334475;28;18176;-66
2023/09/22 00:29:29;;;;;;;0.90;0.30;;;;;;;18.46;100.00;98171.13;335996;28;4769;-66
2023/09/22 00:29:41;;;;;;;0.90;0.30;;;;;;;18.46;100.00;98171.13;334641;28;18102;-66
2023/09/22 00:29:53;;;;;;;0.63;0.17;;;;;;;18.46;100.00;98175.56;337901;28;4694;-66
2023/09/22 00:30:05;;;;;;;0.10;0.10;;;;;;;18.47;100.00;98171.94;337440;28;5517;-66
2023/09/22 00:30:18;;;;;;;0.10;0.10;;;;;;;18.47;100.00;98169.31;330291;28;18129;-66
2023/09/22 00:30:30;;;;;;;0.10;0.10;;;;;;;18.49;100.00;98170.00;337770;28;4559;-66
2023/09/22 00:30:42;;;;;;;0.10;0.10;;;;;;;18.48;100.00;98170.97;334086;28;17495;-66
2023/09/22 00:30:54;;;;;;;0.17;0.17;;;;;;;18.47;100.00;98169.31;338079;28;4666;-66
2023/09/22 00:31:06;;;;;;;0.17;0.17;;;;;;;18.47;100.00;98164.03;335302;28;19732;-66
2023/09/22 00:31:19;;;;;;;0.20;0.20;;;;;;;18.49;100.00;98164.72;336903;28;4703;-66
2023/09/22 00:31:31;;;;;;;0.30;0.20;;;;;;;18.47;100.00;98167.53;337130;28;4630;-66
2023/09/22 00:31:43;;;;;;;0.25;0.20;;;;;;;18.47;100.00;98169.31;336275;28;18843;-66
2023/09/22 00:31:56;;;;;;;1.08;0.10;;;;;;;18.46;100.00;98165.84;338586;28;5555;-66
2023/09/22 00:32:08;;;;;;;1.07;0.13;;;;;;;18.47;100.00;98161.41;335658;28;16950;-66
2023/09/22 00:32:21;;;;;;;1.10;0.10;;;;;;;18.49;100.00;98164.72;338819;28;4627;-66
2023/09/22 00:32:33;;;;;;;0.40;0.10;;;;;;;18.49;100.00;98164.72;335865;28;19098;-66
2023/09/22 00:32:45;;;;;;;0.10;0.10;;;;;;;18.49;100.00;98160.31;337793;28;4615;-66
2023/09/22 00:32:57;;;;;;;0.17;0.17;;;;;;;18.51;100.00;98162.81;336656;28;12705;-66
2023/09/22 00:33:10;;;;;;;0.20;0.20;;;;;;;18.51;100.00;98162.81;332977;28;4591;-66
2023/09/22 00:33:23;;;;;;;0.10;0.10;;;;;;;18.48;100.00;98163.91;334618;28;18152;-66
2023/09/22 00:33:35;;;;;;;0.10;0.10;;;;;;;18.48;100.00;98160.47;337367;28;5254;-66
2023/09/22 00:33:47;;;;;;;0.15;0.10;;;;;;;18.47;100.00;98154.38;333950;28;4686;-66
2023/09/22 00:33:59;;;;;;;0.60;0.20;;;;;;;18.48;100.00;98157.81;338009;28;4790;-66
2023/09/22 00:34:11;;;;;;;0.60;0.20;;;;;;;18.48;100.00;98147.31;338719;28;5221;-65
2023/09/22 00:34:23;;;;;;;0.50;0.10;;;;;;;18.49;100.00;98159.47;336342;28;18227;-66
2023/09/22 00:34:35;;;;;;;0.90;0.20;;;;;;;18.48;100.00;98145.50;333727;28;5190;-66
2023/09/22 00:34:47;;;;;;;0.80;0.10;;;;;;;18.49;100.00;98148.94;335764;28;10470;-66
2023/09/22 00:35:00;;;;;;;0.57;0.10;;;;;;;18.48;100.00;98153.38;339018;28;4555;-66
2023/09/22 00:35:14;;;;;;;0.13;0.10;;;;;;;18.49;100.00;98144.53;338649;28;5936;-66
2023/09/22 00:35:27;;;;;;;0.30;0.20;;;;;;;18.49;100.00;98146.31;335950;28;17789;-66
2023/09/22 00:35:39;;;;;;;0.22;0.20;;;;;;;18.49;100.00;98148.94;335718;28;18193;-66
2023/09/22 00:35:51;;;;;;;0.20;0.10;;;;;;;18.49;100.00;98148.94;338169;28;5252;-66
2023/09/22 00:36:03;;;;;;;0.30;0.13;;;;;;;18.49;100.00;98148.94;336492;28;5510;-66
2023/09/22 00:36:16;;;;;;;0.25;0.20;;;;;;;18.48;100.00;98142.88;335937;28;17396;-66
2023/09/22 00:36:28;;;;;;;0.22;0.20;;;;;;;18.50;100.00;98146.19;335473;28;6366;-66
2023/09/22 00:36:40;;;;;;;0.20;0.10;;;;;;;18.51;100.00;98144.38;337313;28;5134;-66
2023/09/22 00:36:56;;;;;;;0.20;0.10;;;;;;;18.53;100.00;98142.44;337082;28;5232;-66
2023/09/22 00:37:08;;;;;;;0.20;0.10;;;;;;;18.53;100.00;98145.06;337190;28;21799;-66
2023/09/22 00:37:20;;;;;;;0.25;0.17;;;;;;;18.53;100.00;98145.06;335177;28;18129;-66
2023/09/22 00:37:33;;;;;;;0.10;0.10;;;;;;;18.54;100.00;98146.75;337685;28;4661;-66
2023/09/22 00:37:45;;;;;;;0.10;0.10;;;;;;;18.55;100.00;98146.63;329571;28;10935;-66
2023/09/22 00:37:57;;;;;;;0.20;0.20;;;;;;;18.55;100.00;98151.03;337216;28;4647;-66
2023/09/22 00:38:10;;;;;;;1.60;0.20;;;;;;;18.53;100.00;98145.06;335346;28;12287;-66
2023/09/22 00:38:22;;;;;;;1.65;0.20;;;;;;;18.55;100.00;98143.13;337101;28;4700;-66
2023/09/22 00:38:34;;;;;;;1.05;0.20;;;;;;;18.55;100.00;98143.13;334491;28;17996;-66
2023/09/22 00:38:46;;;;;;;1.40;0.30;;;;;;;18.56;100.00;98150.06;336243;28;5226;-66
2023/09/22 00:38:59;;;;;;;1.50;0.30;;;;;;;18.56;100.00;98145.63;338121;28;7276;-66
2023/09/22 00:39:11;;;;;;;1.17;0.22;;;;;;;18.57;100.00;98151.72;334993;28;11705;-66
2023/09/22 00:39:23;;;;;;;0.70;0.20;;;;;;;18.59;100.00;98155.06;332922;28;5437;-66
2023/09/22 00:39:36;;;;;;;0.60;0.20;;;;;;;18.59;100.00;98147.16;335237;28;11934;-66
2023/09/22 00:39:48;;;;;;;0.10;0.10;;;;;;;18.60;100.00;98145.38;336444;28;17551;-66
2023/09/22 00:40:00;;;;;;;0.10;0.10;;;;;;;18.61;100.00;98150.47;334086;28;11316;-66
2023/09/22 00:40:12;;;;;;;0.10;0.10;;;;;;;18.62;100.00;98148.69;336956;28;18200;-66
2023/09/22 00:40:25;;;;;;;0.10;0.10;;;;;;;18.60;100.00;98146.19;337821;28;5157;-66
2023/09/22 00:40:37;;;;;;;0.10;0.10;;;;;;;18.59;100.00;98144.53;334269;28;19265;-66
2023/09/22 00:40:49;;;;;;;0.93;0.17;;;;;;;18.61;100.00;98147.84;336719;28;4573;-65
2023/09/22 00:41:00;;;;;;;1.20;0.20;;;;;;;18.61;100.00;98147.84;334892;28;17878;-66
2023/09/22 00:41:12;;;;;;;1.20;0.20;;;;;;;18.62;100.00;98143.44;337658;28;5169;-66
2023/09/22 00:41:25;;;;;;;0.20;0.20;;;;;;;18.62;100.00;98144.25;337333;28;4507;-66
2023/09/22 00:41:37;;;;;;;0.10;0.10;;;;;;;18.63;100.00;98147.72;334907;28;18476;-66
2023/09/22 00:41:49;;;;;;;0.50;0.10;;;;;;;18.60;100.00;98145.38;336993;28;4679;-66
2023/09/22 00:42:08;;;;;;;0.50;0.20;;;;;;;18.59;100.00;98143.69;336262;28;17948;-66
2023/09/22 00:42:20;;;;;;;0.10;0.10;;;;;;;18.56;100.00;98147.44;329402;28;16673;-66
2023/09/22 00:42:32;;;;;;;0.10;0.10;;;;;;;18.57;100.00;98141.19;334023;28;12774;-66
2023/09/22 00:42:45;;;;;;;0.20;0.20;;;;;;;18.59;100.00;98143.69;336679;28;4711;-66
2023/09/22 00:43:11;;;;;;;1.35;0.25;;;;;;;18.59;100.00;98144.53;335650;28;10850;-66
2023/09/22 00:43:23;;;;;;;0.20;0.20;;;;;;;18.60;100.00;98148.84;333598;28;17475;-66
2023/09/22 00:43:35;;;;;;;0.22;0.20;;;;;;;18.57;100.00;98141.19;331995;28;4514;-66
2023/09/22 00:43:47;;;;;;;0.30;0.20;;;;;;;18.57;100.00;98135.94;334640;28;18158;-66
2023/09/22 00:43:59;;;;;;;0.30;0.20;;;;;;;18.59;100.00;98141.88;337420;28;4787;-66
2023/09/22 00:44:11;;;;;;;0.10;0.10;;;;;;;18.60;100.00;98140.94;335573;28;5390;-66
2023/09/22 00:44:24;;;;;;;0.15;0.15;;;;;;;18.63;100.00;98142.44;337788;28;4654;-66
2023/09/22 00:44:37;;;;;;;0.20;0.20;;;;;;;18.65;100.00;98136.09;334501;28;16049;-66
2023/09/22 00:44:49;;;;;;;0.17;0.17;;;;;;;18.66;100.00;98145.66;337185;28;5020;-66
2023/09/22 00:45:02;;;;;;;0.20;0.20;;;;;;;18.69;100.00;98144.53;336954;28;5226;-66
2023/09/22 00:45:17;;;;;;;0.20;0.20;;;;;;;18.70;100.00;98144.41;330085;28;18370;-66
2023/09/22 00:45:29;;;;;;;0.10;0.10;;;;;;;18.71;100.00;98138.19;333670;28;19081;-66
2023/09/22 00:45:44;;;;;;;0.10;0.10;;;;;;;18.71;100.00;98142.59;337317;28;4582;-66
2023/09/22 00:45:56;;;;;;;0.10;0.10;;;;;;;18.71;100.00;98138.19;335279;28;16376;-66
2023/09/22 00:46:12;;;;;;;0.10;0.10;;;;;;;18.72;100.00;98137.19;334950;28;17010;-66
2023/09/22 00:46:25;;;;;;;0.10;0.10;;;;;;;18.71;100.00;98132.91;335218;28;18041;-66
2023/09/22 00:46:38;;;;;;;0.10;0.10;;;;;;;18.68;100.00;98135.81;337637;28;4587;-66
2023/09/22 00:46:51;;;;;;;0.10;0.10;;;;;;;18.65;100.00;98137.88;334145;28;18326;-66
2023/09/22 00:47:12;;;;;;;0.93;0.32;;;;;;;18.65;100.00;98138.75;337426;28;4665;-66
2023/09/22 00:47:24;;;;;;;1.80;0.50;;;;;;;18.63;100.00;98140.66;333670;28;17494;-66
2023/09/22 00:47:36;;;;;;;0.57;0.15;;;;;;;18.65;100.00;98138.75;336729;28;4837;-66
2023/09/22 00:47:48;;;;;;;0.38;0.20;;;;;;;18.67;100.00;98136.81;334366;28;16386;-66
2023/09/22 00:48:01;;;;;;;0.50;0.20;;;;;;;18.69;100.00;98129.59;336998;28;4483;-66
2023/09/22 00:48:27;;;;;;;0.55;0.20;;;;;;;18.71;100.00;98130.28;337531;28;4699;-66
2023/09/22 00:48:40;;;;;;;0.30;0.22;;;;;;;18.72;100.00;98134.56;334703;28;17276;-66
2023/09/22 00:48:54;;;;;;;0.10;0.10;;;;;;;18.74;100.00;98137.88;337825;28;4562;-66
2023/09/22 00:49:07;;;;;;;0.10;0.10;;;;;;;18.73;100.00;98141.50;331599;28;17926;-66
2023/09/22 00:49:20;;;;;;;0.20;0.13;;;;;;;18.73;100.00;98135.38;333421;28;18999;-66
2023/09/22 00:49:33;;;;;;;0.30;0.20;;;;;;;18.74;100.00;98137.06;336194;28;4519;-66
2023/09/22 00:49:45;;;;;;;0.32;0.20;;;;;;;18.75;100.00;98143.97;333787;28;6223;-66
2023/09/22 00:49:58;;;;;;;0.20;0.20;;;;;;;18.75;100.00;98142.19;337117;28;4670;-66
2023/09/22 00:50:10;;;;;;;0.20;0.20;;;;;;;18.76;100.00;98138.59;334834;28;18276;-66
2023/09/22 00:50:22;;;;;;;0.30;0.28;;;;;;;18.77;100.00;98148.16;337889;28;4573;-66
2023/09/22 00:50:37;;;;;;;0.25;0.20;;;;;;;18.74;100.00;98142.34;334862;28;16339;-66
2023/09/22 00:50:50;;;;;;;0.20;0.20;;;;;;;18.72;100.00;98139.81;337918;28;5041;-66
2023/09/22 00:51:03;;;;;;;0.10;0.10;;;;;;;18.66;100.00;98135.13;334860;28;19233;-66
2023/09/22 00:51:19;;;;;;;0.10;0.10;;;;;;;18.65;100.00;98144.00;336368;28;5191;-66
2023/09/22 00:51:31;;;;;;;0.10;0.10;;;;;;;18.67;100.00;98142.06;333806;28;18966;-66
2023/09/22 00:51:44;;;;;;;0.13;0.10;;;;;;;18.69;100.00;98144.53;337795;28;4672;-66
2023/09/22 00:51:58;;;;;;;0.20;0.20;;;;;;;18.68;100.00;98141.06;334758;28;16374;-66
2023/09/22 00:52:11;;;;;;;0.20;0.20;;;;;;;18.70;100.00;98144.41;334622;28;4658;-66
2023/09/22 00:52:24;;;;;;;1.60;0.20;;;;;;;18.68;100.00;98138.44;336707;28;4477;-66
2023/09/22 00:52:37;;;;;;;2.80;0.22;;;;;;;18.69;100.00;98145.38;333904;28;18280;-66
2023/09/22 00:52:49;;;;;;;1.45;0.20;;;;;;;18.67;100.00;98147.31;336474;28;4798;-66
2023/09/22 00:53:01;;;;;;;1.02;0.20;;;;;;;18.66;100.00;98140.38;333703;28;16436;-66
2023/09/22 00:53:14;;;;;;;0.20;0.20;;;;;;;18.67;100.00;98146.47;336416;28;4552;-66
2023/09/22 00:53:31;;;;;;;0.20;0.13;;;;;;;18.69;100.00;98144.53;333755;28;12371;-66
2023/09/22 00:53:43;;;;;;;0.20;0.10;;;;;;;18.69;100.00;98150.66;333648;28;18795;-66
2023/09/22 00:53:56;;;;;;;0.10;0.10;;;;;;;18.70;100.00;98146.22;337488;28;12404;-66
2023/09/22 00:54:08;;;;;;;0.10;0.10;;;;;;;18.70;100.00;98151.47;334837;28;17224;-66
2023/09/22 00:54:20;;;;;;;0.13;0.13;;;;;;;18.68;100.00;98138.44;337527;28;4551;-66
2023/09/22 00:54:33;;;;;;;0.17;0.17;;;;;;;18.67;100.00;98142.06;335058;28;18385;-66
2023/09/22 00:54:46;;;;;;;0.20;0.20;;;;;;;18.66;100.00;98150.91;337074;28;4740;-66
2023/09/22 00:54:59;;;;;;;0.50;0.20;;;;;;;18.68;100.00;98148.16;334576;28;18263;-66
2023/09/22 00:55:11;;;;;;;0.57;0.20;;;;;;;18.68;100.00;98148.97;337695;28;5164;-66
2023/09/22 00:55:23;;;;;;;0.52;0.10;;;;;;;18.70;100.00;98151.47;334890;28;17806;-66
2023/09/22 00:55:35;;;;;;;0.30;0.15;;;;;;;18.71;100.00;98148.72;337430;28;4675;-66
2023/09/22 00:55:49;;;;;;;0.30;0.20;;;;;;;18.72;100.00;98153.00;334783;28;11863;-66
2023/09/22 00:56:03;;;;;;;0.20;0.20;;;;;;;18.70;100.00;98152.28;335537;28;17234;-66
2023/09/22 00:56:19;;;;;;;0.20;0.20;;;;;;;18.68;100.00;98156.88;333971;28;18379;-66
2023/09/22 00:56:31;;;;;;;0.20;0.20;;;;;;;18.67;100.00;98154.38;333699;28;17787;-66
2023/09/22 00:56:46;;;;;;;1.27;0.10;;;;;;;18.64;100.00;98158.13;334100;28;18123;-66
2023/09/22 00:56:59;;;;;;;1.20;0.10;;;;;;;18.61;100.00;98163.63;334931;28;5404;-66
2023/09/22 00:57:11;;;;;;;0.68;0.13;;;;;;;18.61;100.00;98158.38;332905;28;5226;-66
2023/09/22 00:57:23;;;;;;;0.20;0.20;;;;;;;18.61;100.00;98163.63;335298;28;18149;-66
2023/09/22 00:57:35;;;;;;;0.20;0.20;;;;;;;18.64;100.00;98160.75;336739;28;4770;-66
2023/09/22 00:57:48;;;;;;;0.30;0.20;;;;;;;18.67;100.00;98163.13;334666;28;18099;-66
2023/09/22 00:58:00;;;;;;;0.40;0.10;;;;;;;18.69;100.00;98160.31;337767;28;4780;-66
2023/09/22 00:58:13;;;;;;;0.60;0.20;;;;;;;18.71;100.00;98169.75;334978;28;18418;-66
2023/09/22 00:58:25;;;;;;;0.30;0.20;;;;;;;18.72;100.00;98174.03;337476;28;4999;-66
2023/09/22 00:58:37;;;;;;;0.22;0.20;;;;;;;18.72;100.00;98174.03;336778;28;5638;-66
2023/09/22 00:58:50;;;;;;;0.13;0.10;;;;;;;18.72;100.00;98171.41;330296;28;12160;-66
2023/09/22 00:59:03;;;;;;;0.10;0.10;;;;;;;18.69;100.00;98176.13;338726;28;4633;-66
2023/09/22 00:59:15;;;;;;;0.10;0.10;;;;;;;18.71;100.00;98171.53;335327;28;17086;-66
2023/09/22 00:59:27;;;;;;;0.10;0.10;;;;;;;18.71;100.00;98175.03;338385;28;4542;-66
2023/09/22 00:59:40;;;;;;;0.30;0.20;;;;;;;18.68;100.00;98170.03;335918;28;19889;-66
2023/09/22 00:59:54;;;;;;;0.30;0.20;;;;;;;18.65;100.00;98174.72;338577;28;5243;-66
2023/09/22 01:00:08;;;;;;;0.10;0.10;;;;;;;18.67;100.00;98172.78;330948;28;17807;-66
2023/09/22 01:00:20;;;;;;;0.10;0.10;;;;;;;18.68;100.00;98177.91;335904;28;18136;-66